Terminal Aerodrome Forecast
Issued by NWS Twin Cities, MN

Home | Current Version | Previous Version | Text Only | Print | Product List | Glossary Off
Versions: 1 2 3 4 5 6 7 8 9 10 11 12 13 14

000
FTUS43 KMPX 262002 AAA
TAFEAU
TAF AMD
KEAU 262002Z 2620/2718 32012G20KT P6SM BKN040
     FM270000 32009KT P6SM SCT040
     FM270300 35004KT P6SM SKC
     FM270800 35004KT P6SM FEW035=

USA.gov is the U.S. government's official web portal to all federal, state and local government web resources and services.